Time;durP1;ratioP1;P1;durP2;ratioP2;P2;SDS_P1;SDS_P2;PMS_P1;PMS_P2;Temp;Humidity;BMP_temperature;BMP_pressure;BME280_temperature;BME280_humidity;BME280_pressure;Samples;Min_cycle;Max_cycle;Signal;HPM_P1;HPM_P2
2024/03/16 00:00:09;;;;;;;53.20;36.60;;;;;;;6.40;76.52;99730.41;107562;1254;61083;-38
2024/03/16 00:02:38;;;;;;;55.70;36.70;;;;;;;6.45;76.36;99737.16;107394;1254;74691;-38
2024/03/16 00:05:06;;;;;;;56.10;36.10;;;;;;;6.46;76.51;99740.05;107390;1253;67657;-38
2024/03/16 00:07:33;;;;;;;60.40;38.70;;;;;;;6.45;76.62;99741.48;107552;1253;72681;-38
2024/03/16 00:10:01;;;;;;;57.70;37.70;;;;;;;6.41;76.63;99734.55;107365;1259;60489;-38
2024/03/16 00:12:29;;;;;;;58.80;38.50;;;;;;;6.38;76.65;99732.48;107455;1254;61083;-38
2024/03/16 00:14:57;;;;;;;58.00;37.80;;;;;;;6.30;76.59;99733.16;107504;1254;74633;-39
2024/03/16 00:17:24;;;;;;;52.30;36.50;;;;;;;6.32;76.53;99740.21;107490;1253;65352;-39
2024/03/16 00:19:52;;;;;;;57.00;37.00;;;;;;;6.35;76.56;99736.59;107475;1254;71437;-39
2024/03/16 00:22:19;;;;;;;52.60;35.40;;;;;;;6.36;76.69;99738.27;107473;1259;61295;-39
2024/03/16 00:24:47;;;;;;;59.60;37.80;;;;;;;6.35;76.89;99733.80;107466;1254;61251;-39
2024/03/16 00:27:14;;;;;;;57.60;39.30;;;;;;;6.32;76.79;99733.63;107459;1254;74753;-39
2024/03/16 00:29:41;;;;;;;60.00;38.70;;;;;;;6.30;76.93;99737.69;107492;1254;66737;-39
2024/03/16 00:32:09;;;;;;;56.90;36.40;;;;;;;6.29;77.11;99741.88;107460;1254;71386;-39
2024/03/16 00:34:36;;;;;;;55.40;35.20;;;;;;;6.35;77.01;99739.99;107440;1255;61330;-39
2024/03/16 00:37:04;;;;;;;54.10;34.80;;;;;;;6.43;76.90;99740.94;107325;1254;189245;-38
2024/03/16 00:40:35;;;;;;;53.10;35.90;;;;;;;6.48;77.07;99740.45;104206;1292;600181;-38
2024/03/16 00:43:04;;;;;;;56.40;37.00;;;;;;;6.47;76.89;99743.78;106642;1266;60115;-37
2024/03/16 00:45:31;;;;;;;65.00;38.70;;;;;;;6.44;76.61;99739.80;106734;1267;59475;-38
2024/03/16 00:48:00;;;;;;;59.10;37.30;;;;;;;6.39;76.74;99738.77;106727;1265;71798;-37
2024/03/16 00:50:27;;;;;;;55.80;35.60;;;;;;;6.40;76.60;99733.47;106759;1267;66762;-37
2024/03/16 00:52:55;;;;;;;55.00;35.40;;;;;;;6.45;76.53;99737.75;106723;1267;72674;-38
2024/03/16 00:55:22;;;;;;;51.00;34.50;;;;;;;6.46;76.64;99738.45;106684;1263;198549;-38
2024/03/16 00:57:49;;;;;;;52.10;34.70;;;;;;;6.47;76.76;99739.89;106840;1263;59196;-38
2024/03/16 01:00:18;;;;;;;56.80;36.70;;;;;;;6.48;76.53;99738.14;106795;1263;71832;-38
2024/03/16 01:02:45;;;;;;;59.20;37.20;;;;;;;6.48;76.66;99739.06;106812;1263;66298;-38
2024/03/16 01:05:13;;;;;;;56.20;35.80;;;;;;;6.48;76.59;99742.30;106797;1263;72659;-38
2024/03/16 01:07:41;;;;;;;53.80;34.00;;;;;;;6.54;76.28;99740.20;106823;1264;60533;-38
2024/03/16 01:10:11;;;;;;;52.90;35.10;;;;;;;6.61;75.92;99739.48;106747;1262;60309;-37
2024/03/16 01:12:39;;;;;;;56.10;36.20;;;;;;;6.60;75.99;99739.44;106721;1263;73942;-37
2024/03/16 01:15:07;;;;;;;56.80;35.90;;;;;;;6.56;76.17;99740.70;106741;1263;66861;-37
2024/03/16 01:17:34;;;;;;;56.10;37.40;;;;;;;6.52;76.04;99741.00;106764;1269;72678;-38
2024/03/16 01:20:02;;;;;;;56.80;36.90;;;;;;;6.49;76.15;99742.02;106806;1264;60398;-38
2024/03/16 01:22:29;;;;;;;57.10;35.50;;;;;;;6.46;76.24;99742.06;106835;1263;60437;-38
2024/03/16 01:24:57;;;;;;;54.30;34.30;;;;;;;6.50;76.06;99744.91;106814;1263;72602;-38
2024/03/16 01:27:25;;;;;;;54.20;35.70;;;;;;;6.50;76.06;99739.23;107018;1265;66315;-38
2024/03/16 01:29:52;;;;;;;60.70;36.80;;;;;;;6.46;76.31;99739.19;106889;1262;71464;-37
2024/03/16 01:32:20;;;;;;;56.60;36.70;;;;;;;6.42;76.51;99742.77;106874;1261;60434;-37
2024/03/16 01:34:47;;;;;;;55.00;37.00;;;;;;;6.40;76.61;99740.63;106858;1260;59760;-37
2024/03/16 01:37:16;;;;;;;57.80;36.90;;;;;;;6.37;76.64;99740.61;106878;1262;73204;-38
2024/03/16 01:39:44;;;;;;;59.60;35.40;;;;;;;6.37;76.63;99741.46;106918;1260;67571;-38
2024/03/16 01:42:12;;;;;;;58.90;36.30;;;;;;;6.44;76.42;99742.52;106872;1262;71420;-37
2024/03/16 01:44:41;;;;;;;51.70;34.50;;;;;;;6.50;76.13;99742.98;106890;1262;60474;-38
2024/03/16 01:47:08;;;;;;;55.10;35.30;;;;;;;6.49;76.19;99743.20;106895;1260;60337;-38
2024/03/16 01:49:36;;;;;;;56.30;36.60;;;;;;;6.48;76.24;99743.38;106857;1260;73908;-38
2024/03/16 01:52:04;;;;;;;59.40;37.20;;;;;;;6.48;76.47;99747.59;106873;1261;68057;-38
2024/03/16 01:54:31;;;;;;;63.90;38.60;;;;;;;6.41;76.48;99736.23;106854;1262;72517;-38
2024/03/16 01:56:59;;;;;;;60.60;36.50;;;;;;;6.44;76.57;99749.11;106869;1262;61880;-38
2024/03/16 01:59:26;;;;;;;52.60;34.30;;;;;;;6.46;76.36;99750.38;106890;1266;60422;-38
2024/03/16 02:01:53;;;;;;;53.10;35.00;;;;;;;6.49;76.26;99748.40;106848;1263;73802;-38
2024/03/16 02:04:22;;;;;;;51.80;35.60;;;;;;;6.46;76.56;99749.96;106884;1262;66331;-38
2024/03/16 02:06:49;;;;;;;60.80;37.00;;;;;;;6.45;76.69;99749.92;106888;1262;73101;-37
2024/03/16 02:09:17;;;;;;;58.10;36.80;;;;;;;6.46;76.86;99750.27;106880;1262;60553;-38
2024/03/16 02:11:44;;;;;;;53.50;34.50;;;;;;;6.46;76.66;99751.23;106914;1262;60380;-37
2024/03/16 02:14:12;;;;;;;52.60;34.00;;;;;;;6.48;76.58;99754.93;106905;1262;72590;-38
2024/03/16 02:16:40;;;;;;;52.30;34.80;;;;;;;6.55;76.26;99755.11;106909;1262;68090;-38
2024/03/16 02:19:07;;;;;;;55.10;35.80;;;;;;;6.56;76.19;99757.53;106742;1262;71443;-38
2024/03/16 02:21:35;;;;;;;55.00;35.30;;;;;;;6.52;76.24;99756.00;106782;1267;60505;-38
2024/03/16 02:24:02;;;;;;;58.70;36.70;;;;;;;6.49;76.17;99756.48;106789;1262;60494;-37
2024/03/16 02:26:30;;;;;;;58.60;38.20;;;;;;;6.41;76.09;99756.06;106880;1262;73878;-37
2024/03/16 02:28:57;;;;;;;57.60;35.80;;;;;;;6.33;76.33;99758.11;106827;1263;67929;-37
2024/03/16 02:31:25;;;;;;;54.40;34.80;;;;;;;6.35;76.57;99758.84;106851;1262;71556;-37
2024/03/16 02:33:53;;;;;;;57.60;35.70;;;;;;;6.40;76.21;99761.10;106815;1262;60664;-37
2024/03/16 02:36:20;;;;;;;53.90;35.20;;;;;;;6.40;76.68;99763.12;107109;1259;60323;-37
2024/03/16 02:38:48;;;;;;;59.50;36.90;;;;;;;6.41;76.82;99761.86;107063;1257;72641;-37
2024/03/16 02:41:15;;;;;;;57.00;35.10;;;;;;;6.35;76.65;99764.69;107065;1257;66669;-37
2024/03/16 02:43:44;;;;;;;58.30;36.20;;;;;;;6.32;76.83;99766.16;107058;1258;71428;-37
2024/03/16 02:46:12;;;;;;;58.70;34.10;;;;;;;6.32;77.00;99765.15;107137;1259;61007;-37
2024/03/16 02:48:40;;;;;;;54.70;34.50;;;;;;;6.39;76.76;99766.90;107128;1257;60466;-37
2024/03/16 02:51:08;;;;;;;52.10;34.70;;;;;;;6.47;76.75;99772.17;107169;1258;73882;-37
2024/03/16 02:53:36;;;;;;;56.90;35.10;;;;;;;6.46;76.69;99768.52;107148;1258;67881;-37
2024/03/16 02:56:04;;;;;;;59.20;37.40;;;;;;;6.42;76.80;99769.21;107092;1262;72650;-37
2024/03/16 02:58:31;;;;;;;59.40;38.10;;;;;;;6.36;76.71;99764.65;107105;1258;60765;-38
2024/03/16 03:00:59;;;;;;;64.70;38.20;;;;;;;6.31;76.85;99765.34;107069;1257;60361;-38
2024/03/16 03:03:26;;;;;;;62.90;36.60;;;;;;;6.28;77.06;99763.99;107075;1257;73834;-37
2024/03/16 03:05:54;;;;;;;59.90;35.50;;;;;;;6.30;76.87;99762.30;106973;1258;67579;-38
2024/03/16 03:08:21;;;;;;;61.70;36.20;;;;;;;6.33;76.92;99764.60;107079;1262;72706;-37
2024/03/16 03:10:50;;;;;;;64.40;37.50;;;;;;;6.30;77.03;99763.92;107063;1262;60438;-38
2024/03/16 03:13:17;;;;;;;69.60;39.90;;;;;;;6.27;77.39;99768.27;107086;1257;60511;-38
2024/03/16 03:15:48;;;;;;;73.50;40.80;;;;;;;6.24;77.53;99764.75;107053;1258;73853;-38
2024/03/16 03:18:15;;;;;;;73.70;41.00;;;;;;;6.22;77.65;99763.90;107144;1257;68095;-38
2024/03/16 03:20:45;;;;;;;71.10;39.30;;;;;;;6.21;77.65;99765.52;107410;1253;72770;-38
2024/03/16 03:23:12;;;;;;;70.70;39.20;;;;;;;6.26;77.67;99764.77;107436;1253;60945;-37
2024/03/16 03:25:40;;;;;;;70.10;38.30;;;;;;;6.32;77.68;99765.41;107375;1253;60502;-37
2024/03/16 03:28:07;;;;;;;67.40;38.20;;;;;;;6.34;77.78;99763.23;107419;1253;73693;-38
2024/03/16 03:30:35;;;;;;;72.00;40.00;;;;;;;6.35;77.75;99763.66;107439;1258;66445;-38
2024/03/16 03:33:03;;;;;;;65.40;39.60;;;;;;;6.33;77.62;99760.80;107408;1253;72658;-38
2024/03/16 03:35:31;;;;;;;70.00;39.30;;;;;;;6.28;77.69;99761.55;107388;1254;60385;-38
2024/03/16 03:37:59;;;;;;;67.10;37.90;;;;;;;6.31;77.50;99762.48;107412;1253;60302;-38
2024/03/16 03:40:26;;;;;;;65.60;37.00;;;;;;;6.36;77.46;99766.12;107396;1253;72604;-38
2024/03/16 03:42:55;;;;;;;67.90;39.50;;;;;;;6.36;77.43;99769.50;107408;1253;66214;-37
2024/03/16 03:45:49;;;;;;;70.00;39.10;;;;;;;6.34;77.52;99773.02;107334;1258;71675;-38
2024/03/16 03:50:56;;;;;;;72.90;40.60;;;;;;;6.31;77.72;99771.04;107330;1253;60267;-38
2024/03/16 03:53:25;;;;;;;70.70;39.30;;;;;;;6.31;77.87;99771.42;107354;1253;72639;-38
2024/03/16 03:55:52;;;;;;;69.40;39.60;;;;;;;6.37;77.78;99770.77;107490;1258;66782;-38
2024/03/16 03:58:20;;;;;;;62.40;36.20;;;;;;;6.47;77.62;99773.34;107399;1254;72679;-38
2024/03/16 04:00:48;;;;;;;66.20;38.50;;;;;;;6.50;77.46;99774.52;107432;1258;60493;-38
2024/03/16 04:03:16;;;;;;;72.40;38.20;;;;;;;6.48;77.24;99773.37;107468;1253;60320;-38
2024/03/16 04:05:44;;;;;;;71.80;40.50;;;;;;;6.42;77.11;99772.98;107445;1253;73944;-38
2024/03/16 04:08:11;;;;;;;72.30;40.80;;;;;;;6.38;77.20;99772.26;107397;1253;68572;-38
2024/03/16 04:10:39;;;;;;;67.70;38.80;;;;;;;6.35;77.25;99773.75;107357;1258;71369;-38
2024/03/16 04:13:06;;;;;;;74.30;39.80;;;;;;;6.38;77.17;99769.95;107372;1256;60713;-38
2024/03/16 04:15:34;;;;;;;66.60;37.80;;;;;;;6.40;77.12;99772.34;107331;1253;60105;-38
2024/03/16 04:18:01;;;;;;;69.50;38.90;;;;;;;6.40;77.41;99774.55;107351;1253;73943;-38
2024/03/16 04:20:29;;;;;;;68.60;40.30;;;;;;;6.38;77.50;99771.20;107392;1253;67620;-38
2024/03/16 04:22:56;;;;;;;72.40;39.90;;;;;;;6.36;77.47;99775.11;107354;1253;71555;-38
2024/03/16 04:25:23;;;;;;;74.20;41.30;;;;;;;6.35;77.63;99774.89;107371;1255;60429;-38
2024/03/16 04:27:51;;;;;;;71.10;37.90;;;;;;;6.35;77.67;99774.83;107413;1253;60302;-38
2024/03/16 04:30:18;;;;;;;63.60;37.30;;;;;;;6.42;77.50;99775.95;107372;1253;73873;-38
2024/03/16 04:32:46;;;;;;;67.70;39.10;;;;;;;6.48;77.23;99771.98;107427;1253;67791;-38
2024/03/16 04:35:13;;;;;;;74.90;39.80;;;;;;;6.48;77.23;99771.60;107425;1253;72658;-38
2024/03/16 04:37:40;;;;;;;68.40;39.20;;;;;;;6.48;77.34;99776.23;107388;1253;60745;-38
2024/03/16 04:40:10;;;;;;;73.70;40.50;;;;;;;6.49;77.32;99778.23;107394;1253;60426;-38
2024/03/16 04:42:38;;;;;;;75.60;40.10;;;;;;;6.47;77.33;99779.98;107380;1253;73861;-38
2024/03/16 04:45:06;;;;;;;68.50;38.50;;;;;;;6.43;77.27;99780.48;107394;1253;67584;-38
2024/03/16 04:47:33;;;;;;;74.90;40.70;;;;;;;6.40;77.13;99772.88;107382;1255;72678;-38
2024/03/16 04:50:01;;;;;;;72.90;40.00;;;;;;;6.49;77.23;99785.88;107570;1257;61348;-38
2024/03/16 04:52:29;;;;;;;73.20;40.60;;;;;;;6.48;77.43;99787.95;107343;1253;61222;-38
2024/03/16 04:54:57;;;;;;;76.30;41.00;;;;;;;6.48;77.40;99787.38;107400;1258;74748;-38
2024/03/16 04:57:24;;;;;;;75.70;39.70;;;;;;;6.45;77.28;99784.81;107386;1253;66637;-38
2024/03/16 04:59:52;;;;;;;75.20;40.00;;;;;;;6.39;77.11;99789.08;107356;1253;72659;-38
2024/03/16 05:02:20;;;;;;;75.10;39.00;;;;;;;6.39;77.25;99786.83;107356;1258;61353;-38
2024/03/16 05:04:47;;;;;;;73.30;38.70;;;;;;;6.42;77.13;99786.35;107538;1253;61002;-38
2024/03/16 05:07:15;;;;;;;74.90;39.40;;;;;;;6.39;77.36;99786.09;107327;1254;73459;-38
2024/03/16 05:09:42;;;;;;;79.00;41.00;;;;;;;6.37;77.55;99785.54;107355;1258;66733;-38
2024/03/16 05:12:10;;;;;;;83.60;42.70;;;;;;;6.35;77.76;99785.69;107305;1253;72680;-38
2024/03/16 05:14:37;;;;;;;83.50;41.80;;;;;;;6.31;77.83;99785.89;107309;1256;61073;-38
2024/03/16 05:17:04;;;;;;;84.20;41.00;;;;;;;6.25;77.86;99791.23;107284;1253;59287;-38
2024/03/16 05:19:32;;;;;;;78.10;39.40;;;;;;;6.22;77.91;99788.80;107298;1253;73356;-38
2024/03/16 05:21:59;;;;;;;78.30;40.70;;;;;;;6.20;78.13;99791.17;107305;1253;67564;-38
2024/03/16 05:24:30;;;;;;;76.90;40.90;;;;;;;6.12;78.48;99791.54;107313;1253;72495;-38
2024/03/16 05:26:57;;;;;;;80.00;41.70;;;;;;;6.03;79.02;99797.29;107350;1258;60445;-38
2024/03/16 05:29:25;;;;;;;82.10;40.40;;;;;;;5.94;79.51;99789.81;107336;1253;60471;-38
2024/03/16 05:32:00;;;;;;;72.80;38.00;;;;;;;5.88;79.73;99791.84;107287;1253;74689;-38
2024/03/16 05:34:27;;;;;;;65.40;36.00;;;;;;;5.90;80.00;99792.17;107458;1253;68039;-38
2024/03/16 05:36:54;;;;;;;59.00;32.50;;;;;;;5.90;80.13;99787.95;107286;1254;72262;-38
2024/03/16 05:39:22;;;;;;;63.10;36.30;;;;;;;5.93;80.21;99791.84;107294;1258;61265;-38
2024/03/16 05:41:49;;;;;;;56.00;33.40;;;;;;;5.88;80.57;99788.23;107363;1253;60278;-38
2024/03/16 05:44:17;;;;;;;61.50;33.80;;;;;;;5.85;80.86;99788.56;107377;1253;73349;-38
2024/03/16 05:46:44;;;;;;;68.40;40.90;;;;;;;5.81;81.07;99792.99;107357;1253;66964;-38
2024/03/16 05:49:11;;;;;;;68.00;40.90;;;;;;;5.85;81.09;99791.77;107324;1253;72656;-38
2024/03/16 05:51:39;;;;;;;65.90;37.60;;;;;;;5.91;81.02;99793.35;107338;1258;61164;-38
2024/03/16 05:54:08;;;;;;;64.10;36.20;;;;;;;5.88;81.27;99792.09;107362;1253;61213;-38
2024/03/16 05:56:37;;;;;;;60.60;36.10;;;;;;;5.87;81.54;99793.90;107354;1255;74644;-38
2024/03/16 05:59:04;;;;;;;71.80;42.10;;;;;;;5.86;81.71;99793.96;107367;1253;66397;-38
2024/03/16 06:01:32;;;;;;;57.10;34.60;;;;;;;5.83;81.78;99792.67;107311;1253;72749;-38
2024/03/16 06:03:59;;;;;;;54.30;33.50;;;;;;;5.86;81.65;99790.98;107360;1255;61373;-38
2024/03/16 06:06:27;;;;;;;54.20;32.20;;;;;;;5.94;81.56;99791.84;107321;1253;61114;-38
2024/03/16 06:08:54;;;;;;;62.20;34.50;;;;;;;5.98;81.66;99794.21;107374;1253;75070;-38
2024/03/16 06:11:22;;;;;;;57.60;33.60;;;;;;;6.02;81.91;99795.92;107380;1253;66376;-38
2024/03/16 06:13:50;;;;;;;64.30;37.80;;;;;;;6.09;82.13;99803.58;107367;1253;72773;-38
2024/03/16 06:16:17;;;;;;;54.00;31.20;;;;;;;6.16;81.74;99801.33;107378;1253;61623;-38
2024/03/16 06:18:47;;;;;;;70.00;42.10;;;;;;;6.23;81.23;99802.09;107374;1253;61270;-38
2024/03/16 06:21:14;;;;;;;56.90;32.60;;;;;;;6.30;80.92;99800.48;107462;1253;74688;-38
2024/03/16 06:23:42;;;;;;;58.80;32.10;;;;;;;6.33;80.91;99799.39;107367;1258;67586;-38
2024/03/16 06:26:16;;;;;;;56.90;32.10;;;;;;;6.39;81.01;99795.38;107346;1253;72662;-38
2024/03/16 06:28:54;;;;;;;60.30;32.10;;;;;;;6.46;80.85;99797.77;107384;1254;60462;-38
2024/03/16 06:31:31;;;;;;;59.40;31.80;;;;;;;6.51;80.37;99796.91;107303;1253;61289;-38
2024/03/16 06:34:01;;;;;;;52.80;29.80;;;;;;;6.65;79.91;99799.55;107515;1258;73664;-38
2024/03/16 06:36:29;;;;;;;53.30;30.20;;;;;;;6.73;79.35;99795.25;107393;1253;67628;-38
2024/03/16 06:38:56;;;;;;;54.80;31.70;;;;;;;6.74;79.01;99795.84;107322;1253;72049;-38
2024/03/16 06:41:24;;;;;;;49.90;29.10;;;;;;;6.74;78.92;99793.42;107343;1256;60073;-38
2024/03/16 06:43:51;;;;;;;51.00;28.80;;;;;;;6.72;78.48;99793.14;107318;1253;61305;-38
2024/03/16 06:46:20;;;;;;;51.90;29.50;;;;;;;6.68;78.31;99796.35;107375;1253;74000;-38
2024/03/16 06:48:47;;;;;;;49.30;27.50;;;;;;;6.65;78.21;99793.40;107342;1258;66685;-38
2024/03/16 06:51:14;;;;;;;46.30;26.60;;;;;;;6.69;77.93;99791.23;107326;1255;71345;-38
2024/03/16 06:53:42;;;;;;;48.70;26.80;;;;;;;6.75;77.95;99789.85;107263;1253;60371;-38
2024/03/16 06:56:09;;;;;;;45.30;27.30;;;;;;;6.80;78.16;99792.20;107337;1253;60584;-38
2024/03/16 06:58:37;;;;;;;49.20;29.40;;;;;;;6.85;78.27;99791.90;107353;1254;74631;-38
2024/03/16 07:01:04;;;;;;;42.80;25.40;;;;;;;6.90;78.15;99797.04;107363;1258;67901;-38
2024/03/16 07:03:31;;;;;;;43.60;25.40;;;;;;;6.92;77.29;99799.48;107340;1253;72415;-38
2024/03/16 07:05:59;;;;;;;41.70;24.90;;;;;;;6.90;77.14;99803.36;107381;1253;61751;-38
2024/03/16 07:08:26;;;;;;;36.40;22.90;;;;;;;6.97;76.87;99809.17;107589;1253;61929;-38
2024/03/16 07:10:56;;;;;;;37.70;22.60;;;;;;;7.06;76.38;99808.05;107392;1253;74644;-38
2024/03/16 07:13:24;;;;;;;36.00;21.90;;;;;;;7.02;75.67;99810.75;107406;1253;66320;-38
2024/03/16 07:15:52;;;;;;;34.50;22.00;;;;;;;6.98;75.54;99810.90;107416;1256;72696;-38
2024/03/16 07:18:19;;;;;;;37.60;23.40;;;;;;;6.95;75.55;99809.96;107387;1253;61210;-38
2024/03/16 07:20:47;;;;;;;38.60;23.20;;;;;;;6.96;75.82;99809.30;107363;1253;61385;-38
2024/03/16 07:23:14;;;;;;;35.90;22.10;;;;;;;7.00;75.92;99809.69;107336;1258;74593;-38
2024/03/16 07:25:42;;;;;;;33.40;20.60;;;;;;;7.11;75.65;99811.77;107344;1253;67630;-38
2024/03/16 07:28:09;;;;;;;34.40;20.30;;;;;;;7.25;75.32;99815.77;107378;1253;71133;-38
2024/03/16 07:30:37;;;;;;;34.40;22.30;;;;;;;7.29;74.70;99814.61;107359;1254;60446;-38
2024/03/16 07:33:04;;;;;;;36.70;23.20;;;;;;;7.29;74.27;99818.52;107284;1258;61209;-38
2024/03/16 07:35:32;;;;;;;34.30;22.10;;;;;;;7.24;74.25;99816.33;107340;1253;73543;-38
2024/03/16 07:38:00;;;;;;;33.60;22.90;;;;;;;7.20;74.45;99818.96;107431;1253;65294;-38
2024/03/16 07:40:27;;;;;;;33.70;20.70;;;;;;;7.17;74.21;99819.15;107382;1254;71507;-38
2024/03/16 07:42:55;;;;;;;32.00;20.20;;;;;;;7.17;74.30;99824.60;107330;1254;61778;-38
2024/03/16 07:45:23;;;;;;;29.50;20.00;;;;;;;7.18;74.38;99824.66;107497;1253;61174;-38
2024/03/16 07:47:51;;;;;;;32.40;21.30;;;;;;;7.17;74.83;99822.59;107520;1254;73413;-38
2024/03/16 07:50:18;;;;;;;32.60;21.00;;;;;;;7.16;74.73;99823.02;107441;1254;67881;-38
2024/03/16 07:52:46;;;;;;;29.10;20.40;;;;;;;7.13;74.67;99823.83;107390;1254;71385;-38
2024/03/16 07:55:14;;;;;;;33.60;22.70;;;;;;;7.06;74.48;99819.39;107383;1254;61241;-38
2024/03/16 07:57:42;;;;;;;31.30;20.60;;;;;;;7.00;74.87;99825.16;107552;1253;62360;-38
2024/03/16 08:00:11;;;;;;;30.80;20.20;;;;;;;7.07;74.99;99821.65;107564;1254;73546;-38
2024/03/16 08:02:38;;;;;;;33.00;21.00;;;;;;;7.17;74.97;99824.45;107625;1254;67903;-39
2024/03/16 08:05:08;;;;;;;30.80;21.10;;;;;;;7.21;74.66;99825.07;107570;1255;71381;-39
2024/03/16 08:07:41;;;;;;;31.60;21.70;;;;;;;7.19;74.49;99823.77;107548;1254;61061;-39
2024/03/16 08:10:09;;;;;;;30.30;21.60;;;;;;;7.18;74.37;99822.15;107653;1254;61189;-39
2024/03/16 08:12:37;;;;;;;35.10;22.00;;;;;;;7.12;74.44;99822.79;107549;1254;74999;-39
2024/03/16 08:15:06;;;;;;;31.70;20.80;;;;;;;7.10;74.53;99820.80;107574;1254;66948;-39
2024/03/16 08:17:34;;;;;;;29.50;19.70;;;;;;;7.16;74.20;99824.26;107596;1254;73116;-38
2024/03/16 08:20:02;;;;;;;30.70;21.30;;;;;;;7.21;74.22;99828.77;107504;1254;60406;-39
2024/03/16 08:22:30;;;;;;;31.10;21.10;;;;;;;7.20;74.28;99828.96;107526;1254;61247;-39
2024/03/16 08:24:57;;;;;;;30.30;21.50;;;;;;;7.17;74.12;99826.05;107563;1254;74772;-39
2024/03/16 08:27:25;;;;;;;32.50;22.40;;;;;;;7.13;74.12;99829.83;106843;1254;1003021;-39
2024/03/16 08:30:00;;;;;;;29.70;20.40;;;;;;;7.07;74.18;99832.67;107515;1253;73080;-39
2024/03/16 08:32:29;;;;;;;26.70;19.20;;;;;;;7.08;74.25;99828.38;107531;1255;61524;-38
2024/03/16 08:34:58;;;;;;;27.20;19.50;;;;;;;7.12;74.30;99825.16;106888;1254;1003065;-38
2024/03/16 08:37:26;;;;;;;26.00;19.20;;;;;;;7.14;74.43;99827.57;107630;1254;74796;-39
2024/03/16 08:39:53;;;;;;;25.80;18.90;;;;;;;7.15;74.57;99825.70;107586;1254;66360;-39
2024/03/16 08:42:21;;;;;;;26.50;18.50;;;;;;;7.19;74.26;99829.06;107591;1254;71469;-38
2024/03/16 08:44:48;;;;;;;27.80;18.90;;;;;;;7.19;74.06;99824.47;107308;1259;61277;-39
2024/03/16 08:47:16;;;;;;;25.10;17.50;;;;;;;7.24;73.94;99830.12;107336;1254;61274;-39
2024/03/16 08:49:43;;;;;;;26.50;17.40;;;;;;;7.32;73.64;99822.30;107332;1254;73496;-39
2024/03/16 08:52:10;;;;;;;24.20;17.40;;;;;;;7.38;73.50;99823.21;107269;1254;66342;-38
2024/03/16 08:54:38;;;;;;;26.30;18.60;;;;;;;7.39;73.18;99822.42;107426;1260;72671;-39
2024/03/16 08:57:06;;;;;;;29.30;19.40;;;;;;;7.40;73.29;99822.23;107321;1256;61234;-39
2024/03/16 08:59:35;;;;;;;30.80;18.60;;;;;;;7.42;73.25;99821.41;107318;1256;61110;-39
2024/03/16 09:02:03;;;;;;;27.00;18.30;;;;;;;7.41;73.05;99824.30;107292;1256;74639;-39
2024/03/16 09:04:32;;;;;;;23.70;16.50;;;;;;;7.46;73.04;99823.96;107304;1255;66434;-39
2024/03/16 09:06:59;;;;;;;27.40;17.50;;;;;;;7.53;72.69;99826.30;107346;1254;73190;-38
2024/03/16 09:09:27;;;;;;;26.80;18.10;;;;;;;7.50;72.34;99826.79;107299;1255;61302;-38
2024/03/16 09:11:54;;;;;;;29.50;18.90;;;;;;;7.46;72.84;99825.02;107334;1260;61184;-39
2024/03/16 09:14:22;;;;;;;29.80;20.50;;;;;;;7.46;73.13;99825.95;107235;1254;74768;-39
2024/03/16 09:16:49;;;;;;;30.80;19.50;;;;;;;7.45;73.20;99824.48;107269;1259;66300;-38
2024/03/16 09:19:17;;;;;;;29.40;18.90;;;;;;;7.46;73.15;99824.24;107304;1255;71541;-39
2024/03/16 09:21:44;;;;;;;29.70;20.60;;;;;;;7.51;73.05;99822.91;107311;1256;61656;-39
2024/03/16 09:24:12;;;;;;;31.10;20.80;;;;;;;7.59;72.90;99820.05;107392;1258;61161;-39
2024/03/16 09:26:40;;;;;;;28.40;20.20;;;;;;;7.55;72.71;99813.52;107343;1256;74800;-39
2024/03/16 09:29:08;;;;;;;29.60;21.10;;;;;;;7.55;72.65;99818.77;107351;1256;69918;-39
2024/03/16 09:31:35;;;;;;;28.80;19.60;;;;;;;7.52;72.72;99814.94;107350;1259;72681;-39
2024/03/16 09:34:04;;;;;;;28.60;19.20;;;;;;;7.51;72.95;99815.36;107338;1255;61240;-39
2024/03/16 09:36:31;;;;;;;28.40;19.10;;;;;;;7.54;72.96;99819.09;107386;1254;61231;-39
2024/03/16 09:38:59;;;;;;;28.90;18.10;;;;;;;7.57;72.48;99818.75;107447;1254;74613;-38
2024/03/16 09:41:26;;;;;;;25.50;16.70;;;;;;;7.61;72.02;99817.42;107348;1258;66560;-38
2024/03/16 09:43:54;;;;;;;27.10;18.80;;;;;;;7.65;71.99;99816.36;107287;1259;73073;-39
2024/03/16 09:46:23;;;;;;;33.00;20.20;;;;;;;7.65;72.14;99819.61;107326;1258;61339;-39
2024/03/16 09:48:51;;;;;;;30.30;21.00;;;;;;;7.65;72.14;99817.21;106564;1259;1002940;-39
2024/03/16 09:51:20;;;;;;;28.00;20.00;;;;;;;7.64;71.97;99816.11;107291;1260;76858;-39
2024/03/16 09:53:48;;;;;;;30.60;20.50;;;;;;;7.60;71.91;99811.63;107357;1258;67632;-39
2024/03/16 09:56:16;;;;;;;27.90;19.00;;;;;;;7.56;72.12;99812.30;107306;1255;72749;-39
2024/03/16 09:58:43;;;;;;;27.70;19.50;;;;;;;7.56;72.06;99800.21;107421;1259;61977;-38
2024/03/16 10:01:11;;;;;;;26.80;19.70;;;;;;;7.70;71.99;99811.45;107298;1256;61150;-38
2024/03/16 10:03:39;;;;;;;27.70;18.90;;;;;;;7.73;71.75;99806.04;107113;1261;74116;-39
2024/03/16 10:06:08;;;;;;;29.40;19.80;;;;;;;7.76;71.83;99805.44;107358;1258;66655;-39
2024/03/16 10:08:36;;;;;;;27.20;19.90;;;;;;;7.78;71.65;99804.90;107269;1254;72102;-39
2024/03/16 10:11:12;;;;;;;31.10;20.30;;;;;;;7.82;71.49;99805.42;107320;1257;61598;-39
2024/03/16 10:13:59;;;;;;;29.00;19.60;;;;;;;7.83;71.30;99809.92;107364;1258;61247;-39
2024/03/16 10:16:26;;;;;;;25.30;16.60;;;;;;;7.84;71.14;99808.69;107351;1254;76056;-38
2024/03/16 10:18:54;;;;;;;24.70;17.80;;;;;;;7.93;70.75;99810.13;107347;1258;68196;-38
2024/03/16 10:21:21;;;;;;;26.80;18.10;;;;;;;8.01;70.34;99810.28;107327;1258;72790;-38
2024/03/16 10:23:49;;;;;;;24.70;18.20;;;;;;;8.01;70.39;99810.50;107203;1254;61203;-40
2024/03/16 10:26:16;;;;;;;26.90;18.20;;;;;;;7.99;70.38;99809.45;107247;1256;61154;-38
2024/03/16 10:28:44;;;;;;;25.50;18.80;;;;;;;7.97;70.12;99809.73;107282;1255;72548;-38
2024/03/16 10:31:12;;;;;;;26.60;18.80;;;;;;;7.90;70.13;99806.95;107353;1260;66877;-42
2024/03/16 10:33:41;;;;;;;24.20;17.90;;;;;;;7.87;70.45;99807.86;107335;1260;72820;-37
2024/03/16 10:36:17;;;;;;;22.90;16.60;;;;;;;7.87;70.69;99805.70;107357;1259;61275;-37
2024/03/16 10:38:45;;;;;;;21.10;15.90;;;;;;;7.98;70.65;99805.70;107259;1259;61146;-37
2024/03/16 10:41:16;;;;;;;22.40;16.40;;;;;;;8.10;70.11;99804.45;107276;1260;75221;-37
2024/03/16 10:43:44;;;;;;;22.90;16.40;;;;;;;8.15;69.95;99802.59;107401;1258;68134;-39
2024/03/16 10:46:15;;;;;;;21.90;16.80;;;;;;;8.19;69.79;99804.45;107276;1255;71102;-37
2024/03/16 10:48:43;;;;;;;20.90;16.30;;;;;;;8.20;69.50;99800.18;107365;1254;61096;-37
2024/03/16 10:51:15;;;;;;;20.70;15.80;;;;;;;8.17;69.46;99801.36;107318;1254;60258;-37
2024/03/16 10:53:42;;;;;;;21.30;16.20;;;;;;;8.14;69.57;99798.02;107391;1260;76886;-38
2024/03/16 10:56:10;;;;;;;23.70;17.10;;;;;;;8.12;69.57;99799.58;107283;1260;68113;-37
2024/03/16 10:58:37;;;;;;;24.70;16.40;;;;;;;8.08;69.56;99794.44;107150;1258;72800;-37
2024/03/16 11:01:15;;;;;;;20.20;15.20;;;;;;;8.12;69.39;99795.56;107283;1259;62052;-37
2024/03/16 11:03:43;;;;;;;19.50;15.30;;;;;;;8.17;69.34;99793.50;107394;1254;61633;-38
2024/03/16 11:06:21;;;;;;;23.60;17.30;;;;;;;8.16;69.32;99795.95;107271;1259;74922;-38
2024/03/16 11:08:50;;;;;;;21.40;16.20;;;;;;;8.14;69.36;99790.69;107304;1260;66817;-38
2024/03/16 11:11:21;;;;;;;19.90;15.40;;;;;;;8.11;69.57;99791.98;107354;1254;73550;-38
2024/03/16 11:13:55;;;;;;;20.00;15.70;;;;;;;8.09;69.56;99791.23;107395;1260;61317;-38
2024/03/16 11:16:29;;;;;;;22.80;16.70;;;;;;;8.07;69.78;99785.77;107319;1254;61233;-37
2024/03/16 11:18:58;;;;;;;20.00;14.80;;;;;;;8.12;69.87;99782.13;107379;1254;73468;-38
2024/03/16 11:21:27;;;;;;;18.40;14.00;;;;;;;8.25;69.56;99778.20;107445;1257;66672;-38
2024/03/16 11:23:54;;;;;;;18.10;13.80;;;;;;;8.37;69.28;99782.03;107448;1259;73063;-38